createdAt,value
2018-11-12T00:01:17.471Z,9.5
2018-11-12T00:06:13.375Z,8.9
2018-11-12T00:11:09.428Z,8.8
2018-11-12T00:16:05.305Z,8.8
2018-11-12T00:21:00.714Z,9.3
2018-11-12T00:25:56.762Z,8.8
2018-11-12T00:30:52.859Z,8.8
2018-11-12T00:35:48.743Z,8.8
2018-11-12T00:40:44.524Z,8.7
2018-11-12T00:45:40.503Z,8.5
2018-11-12T00:50:36.665Z,8.6
2018-11-12T00:55:32.151Z,8.6
2018-11-12T01:00:28.137Z,8.6
2018-11-12T01:05:24.124Z,8.6
2018-11-12T01:10:19.985Z,8.1
2018-11-12T01:15:15.812Z,8.4
2018-11-12T01:20:11.627Z,8.3
2018-11-12T01:25:07.761Z,8.3
2018-11-12T01:30:03.683Z,8.3
2018-11-12T01:34:59.615Z,8.2
2018-11-12T01:39:55.578Z,8.1
2018-11-12T01:44:51.460Z,8.1
2018-11-12T01:49:46.598Z,8
2018-11-12T01:54:42.518Z,8.4
2018-11-12T01:59:38.529Z,7.9
2018-11-12T02:04:34.628Z,8
2018-11-12T02:09:30.495Z,7.8
2018-11-12T02:14:26.478Z,7.9
2018-11-12T02:19:22.622Z,8.2
2018-11-12T02:24:18.486Z,7.8
2018-11-12T02:29:14.132Z,8.4
2018-11-12T02:34:09.936Z,8.4
2018-11-12T02:39:06.061Z,7.5
2018-11-12T02:44:01.875Z,7.8
2018-11-12T02:48:57.857Z,7.6
2018-11-12T02:53:54.097Z,8
2018-11-12T02:58:49.873Z,7.9
2018-11-12T03:03:45.610Z,8.1
2018-11-12T03:08:41.810Z,8.1
2018-11-12T03:13:37.739Z,8.1
2018-11-12T03:18:33.486Z,7.4
2018-11-12T03:23:29.418Z,8
2018-11-12T03:28:25.480Z,8
2018-11-12T03:33:21.471Z,8.1
2018-11-12T03:38:17.457Z,8
2018-11-12T03:43:13.317Z,8
2018-11-12T03:48:09.266Z,8.1
2018-11-12T03:53:05.120Z,8.1
2018-11-12T03:58:01.279Z,7
2018-11-12T04:02:57.504Z,7.9
2018-11-12T04:07:53.398Z,7.3
2018-11-12T04:12:49.266Z,7.2
2018-11-12T04:17:45.230Z,7.3
2018-11-12T04:22:41.143Z,7.3
2018-11-12T04:27:37.267Z,7.3
2018-11-12T04:32:33.000Z,7.3
2018-11-12T04:37:29.149Z,7.2
2018-11-12T04:42:25.043Z,7.1
2018-11-12T04:47:21.013Z,7.4
2018-11-12T04:52:16.926Z,7.3
2018-11-12T04:57:13.032Z,7.7
2018-11-12T05:02:08.902Z,7
2018-11-12T05:07:04.522Z,7.5
2018-11-12T05:12:00.436Z,7.4
2018-11-12T05:16:56.158Z,7.1
2018-11-12T05:21:52.142Z,7.1
2018-11-12T05:26:48.828Z,7.1
2018-11-12T05:31:45.207Z,6.6
2018-11-12T05:36:41.327Z,6.9
2018-11-12T05:41:37.071Z,7.2
2018-11-12T05:46:33.162Z,6.9
2018-11-12T05:51:29.066Z,7.2
2018-11-12T05:56:25.611Z,7.1
2018-11-12T06:01:21.939Z,7.1
2018-11-12T06:06:18.064Z,6.5
2018-11-12T06:11:14.086Z,7.1
2018-11-12T06:16:10.078Z,7.1
2018-11-12T06:21:05.725Z,7.2
2018-11-12T06:26:01.297Z,6.7
2018-11-12T06:30:57.074Z,7.2
2018-11-12T06:35:52.893Z,6.8
2018-11-12T06:40:48.925Z,7.4
2018-11-12T06:45:44.828Z,7.1
2018-11-12T06:50:40.969Z,7.4
2018-11-12T06:55:37.158Z,6.8
2018-11-12T07:00:32.976Z,6.9
2018-11-12T07:05:28.943Z,7
2018-11-12T07:10:25.014Z,7
2018-11-12T07:15:20.913Z,7.5
2018-11-12T07:20:16.640Z,7.2
2018-11-12T07:25:12.527Z,7.2
2018-11-12T07:30:08.021Z,7.3
2018-11-12T07:35:03.909Z,7.3
2018-11-12T07:39:59.702Z,7.3
2018-11-12T07:44:55.427Z,7.6
2018-11-12T07:49:51.121Z,7.3
2018-11-12T07:54:47.631Z,7.4
2018-11-12T07:59:43.706Z,7.5
2018-11-12T08:04:39.787Z,7.5
2018-11-12T08:09:35.774Z,7.5
2018-11-12T08:14:31.832Z,7.6
2018-11-12T08:19:27.391Z,7.7
2018-11-12T08:24:22.940Z,7.7
2018-11-12T08:29:18.832Z,7.8
2018-11-12T08:34:12.252Z,8.4
2018-11-12T08:39:08.114Z,7.7
2018-11-12T08:44:04.011Z,8
2018-11-12T08:49:00.014Z,8
2018-11-12T08:53:56.303Z,8.1
2018-11-12T08:58:52.252Z,8.2
2018-11-12T09:03:48.506Z,8.3
2018-11-12T09:08:44.233Z,8.5
2018-11-12T09:13:43.597Z,8.6
2018-11-12T09:18:38.306Z,8.6
2018-11-12T09:23:34.008Z,9.1
2018-11-12T09:28:29.742Z,9.5
2018-11-12T09:33:25.794Z,9
2018-11-12T09:38:22.172Z,8.9
2018-11-12T09:43:18.472Z,9.4
2018-11-12T09:48:14.080Z,9.7
2018-11-12T09:53:10.695Z,10
2018-11-12T09:58:07.003Z,10.2
2018-11-12T10:03:04.447Z,10.5
2018-11-12T10:08:02.166Z,11.1
2018-11-12T10:12:57.394Z,10.7
2018-11-12T10:17:53.863Z,11.5
2018-11-12T10:22:47.378Z,11.1
2018-11-12T10:27:43.508Z,11.2
2018-11-12T10:32:39.260Z,11.3
2018-11-12T10:37:35.423Z,12
2018-11-12T10:42:31.866Z,11.5
2018-11-12T10:47:27.724Z,11.6
2018-11-12T10:52:24.185Z,11.6
2018-11-12T10:57:20.059Z,11.7
2018-11-12T11:02:16.307Z,12.4
2018-11-12T11:07:12.146Z,12.6
2018-11-12T11:12:08.244Z,12.7
2018-11-12T11:17:04.107Z,12.9
2018-11-12T11:22:00.292Z,13.1
2018-11-12T11:26:56.288Z,13.2
2018-11-12T11:31:51.953Z,13.5
2018-11-12T11:36:48.040Z,13.6
2018-11-12T11:41:44.447Z,13.1
2018-11-12T11:46:40.411Z,14.1
2018-11-12T11:51:36.945Z,14.2
2018-11-12T11:56:33.193Z,14.4
2018-11-12T12:01:29.219Z,14.3
2018-11-12T12:06:25.418Z,14.8
2018-11-12T12:11:21.624Z,14.5
2018-11-12T12:16:17.685Z,15.1
2018-11-12T12:21:13.895Z,15.3
2018-11-12T12:26:10.044Z,15.3
2018-11-12T12:31:05.910Z,15.4
2018-11-12T12:36:02.179Z,15.1
2018-11-12T12:40:58.356Z,15.6
2018-11-12T12:45:54.548Z,15.1
2018-11-12T12:50:50.665Z,15.7
2018-11-12T12:55:47.022Z,15.7
2018-11-12T13:00:42.791Z,15.2
2018-11-12T13:05:38.805Z,15.1
2018-11-12T13:10:34.436Z,15.7
2018-11-12T13:15:30.450Z,15.7
2018-11-12T13:20:26.467Z,15.6
2018-11-12T13:25:22.633Z,15.1
2018-11-12T13:30:18.772Z,15.5
2018-11-12T13:35:14.821Z,15.5
2018-11-12T13:40:10.870Z,14.9
2018-11-12T13:45:06.814Z,15.3
2018-11-12T13:50:02.378Z,15.3
2018-11-12T13:54:58.747Z,14.5
2018-11-12T13:59:54.777Z,15.1
2018-11-12T14:04:50.661Z,15.1
2018-11-12T14:09:46.145Z,15
2018-11-12T14:14:42.016Z,15
2018-11-12T14:19:37.883Z,14.9
2018-11-12T14:24:33.998Z,14.8
2018-11-12T14:29:29.952Z,14.3
2018-11-12T14:34:25.972Z,14.7
2018-11-12T14:39:21.900Z,14.1
2018-11-12T14:44:17.771Z,14.6
2018-11-12T14:49:14.002Z,14.6
2018-11-12T14:54:10.127Z,10.3
2018-11-12T14:59:05.722Z,14.5
2018-11-12T15:04:01.948Z,14.4
2018-11-12T15:08:57.831Z,14.4
2018-11-12T15:13:53.474Z,14.3
2018-11-12T15:18:49.453Z,13.8
2018-11-12T15:23:45.638Z,14.3
2018-11-12T15:28:41.983Z,13.7
2018-11-12T15:33:37.851Z,14.1
2018-11-12T15:38:33.842Z,14.1
2018-11-12T15:43:29.828Z,14.1
2018-11-12T15:48:25.630Z,14
2018-11-12T15:53:21.439Z,14
2018-11-12T15:58:17.523Z,12.5
2018-11-12T16:03:13.352Z,13.9
2018-11-12T16:08:08.940Z,13.8
2018-11-12T16:13:04.744Z,13.8
2018-11-12T16:17:59.863Z,13.7
2018-11-12T16:22:55.798Z,13.7
2018-11-12T16:27:52.082Z,13.6
2018-11-12T16:32:48.252Z,13.4
2018-11-12T16:37:44.002Z,13.5
2018-11-12T16:42:39.902Z,13
2018-11-12T16:47:36.153Z,13.3
2018-11-12T16:52:32.064Z,13
2018-11-12T16:57:29.622Z,13
2018-11-12T17:02:26.865Z,13.2
2018-11-12T17:07:24.247Z,12.7
2018-11-12T17:12:20.867Z,12.6
2018-11-12T17:17:16.563Z,12.5
2018-11-12T17:22:12.536Z,12.5
2018-11-12T17:27:08.573Z,13
2018-11-12T17:32:04.966Z,12.4
2018-11-12T17:37:00.799Z,12.8
2018-11-12T17:41:56.717Z,12.1
2018-11-12T17:46:52.402Z,12.6
2018-11-12T17:51:48.428Z,12.1
2018-11-12T17:56:44.894Z,12.5
2018-11-12T18:01:41.237Z,11.9
2018-11-12T18:06:37.202Z,11.8
2018-11-12T18:11:34.148Z,10.4
2018-11-12T18:16:30.826Z,11.7
2018-11-12T18:21:26.706Z,11.7
2018-11-12T18:26:22.147Z,11.7
2018-11-12T18:31:18.056Z,12.2
2018-11-12T18:36:11.727Z,11.6
2018-11-12T18:41:07.676Z,11.6
2018-11-12T18:46:03.843Z,11.5
2018-11-12T18:50:59.805Z,11.4
2018-11-12T18:55:56.000Z,11.4
2018-11-12T19:00:52.293Z,11.9
2018-11-12T19:05:48.297Z,11.4
2018-11-12T19:10:44.059Z,11.4
2018-11-12T19:15:40.140Z,11.3
2018-11-12T19:20:36.190Z,11.3
2018-11-12T19:25:32.140Z,11.8
2018-11-12T19:30:27.815Z,11.1
2018-11-12T19:35:23.938Z,11.7
2018-11-12T19:40:19.987Z,11.7
2018-11-12T19:45:15.858Z,11.6
2018-11-12T19:50:11.884Z,11
2018-11-12T19:55:08.359Z,11.5
2018-11-12T20:00:04.425Z,10.9
2018-11-12T20:05:00.227Z,10.7
2018-11-12T20:09:56.016Z,10.7
2018-11-12T20:14:51.952Z,10.7
2018-11-12T20:19:47.782Z,10.6
2018-11-12T20:24:43.426Z,11.1
2018-11-12T20:29:39.435Z,11
2018-11-12T20:34:35.660Z,10.4
2018-11-12T20:39:31.706Z,10.4
2018-11-12T20:44:27.579Z,10.3
2018-11-12T20:49:23.056Z,10.3
2018-11-12T20:54:19.875Z,10.8
2018-11-12T20:59:15.473Z,10.2
2018-11-12T21:04:11.265Z,10
2018-11-12T21:09:07.130Z,10
2018-11-12T21:14:05.442Z,10
2018-11-12T21:19:01.454Z,10
2018-11-12T21:23:57.592Z,9.9
2018-11-12T21:28:53.577Z,9.9
2018-11-12T21:33:49.692Z,9.9
2018-11-12T21:38:45.311Z,9.7
2018-11-12T21:43:40.953Z,10.4
2018-11-12T21:48:36.821Z,9.9
2018-11-12T21:53:33.738Z,9.9
2018-11-12T21:58:29.756Z,9.6
2018-11-12T22:03:25.720Z,9.7
2018-11-12T22:08:21.616Z,10.1
2018-11-12T22:13:19.369Z,9.5
2018-11-12T22:18:15.260Z,9.5
2018-11-12T22:23:11.206Z,9.4
2018-11-12T22:28:07.130Z,9.2
2018-11-12T22:33:02.913Z,9.3
2018-11-12T22:37:58.983Z,9.8
2018-11-12T22:42:54.926Z,9.6
2018-11-12T22:47:50.907Z,9.2
2018-11-12T22:52:47.666Z,9.2
2018-11-12T22:57:42.982Z,9.1
2018-11-12T23:02:39.143Z,9.2
2018-11-12T23:07:35.022Z,9.1
2018-11-12T23:12:30.864Z,8.9
2018-11-12T23:17:26.151Z,8.9
2018-11-12T23:22:22.309Z,9
2018-11-12T23:27:18.248Z,9
2018-11-12T23:32:13.708Z,8.9
2018-11-12T23:37:09.510Z,9.4
2018-11-12T23:42:05.707Z,8.8
2018-11-12T23:47:01.509Z,8.7
2018-11-12T23:51:57.432Z,8.7
2018-11-12T23:56:53.561Z,9.2
